KSPI/SPI METAR and TAF weather

Enter ICAO airport designator
Station Type Date Time Source
KSPI METAR 2022/01/29 01:52 UTC NOAA

KSPI 290152Z 31004KT 10SM CLR M08/M16 A3039 RMK AO2 SLP296 T10781161 $


Station Type Date Time Source
KSPI Decoded METAR 2022/01/29 01:52 UTC NOAA

ABRAHAM LINCOLN CAPITAL AIRPORT , IL, United States (KSPI) 39-51N 89-41W 181M
Jan 28, 2022 - 08:52 PM EST / 2022.01.29 0152 UTC
Wind: from the NW (310 degrees) at 5 MPH (4 KT):0
Visibility: 10 mile(s):0
Sky conditions: clear
Temperature: 18.0 F (-7.8 C)
Windchill: 10 F (-12 C):1
Dew Point: 3.0 F (-16.1 C)
Relative Humidity: 51%
Pressure (altimeter): 30.39 in. Hg (1029 hPa)
ob: KSPI 290152Z 31004KT 10SM CLR M08/M16 A3039 RMK AO2 SLP296 T10781161
cycle: 2

Station Type Date Time Source
KSPI TAF 2022/01/28 18:45 UTC NOAA

TAF KSPI 281741Z 2818/2918 34016KT P6SM SCT025
FM282200 34011KT P6SM SCT070
FM290300 VRB04KT P6SM FEW150
FM291600 18010KT P6SM SCT250

Example: see airport list